sensor_id;sensor_type;location;lat;lon;timestamp;P1;durP1;ratioP1;P2;durP2;ratioP2
35444;SDS011;21562;49.476;6.086;2022-10-31T00:02:07;15.50;;;5.28;;
35444;SDS011;21562;49.476;6.086;2022-10-31T00:04:33;11.65;;;5.32;;
35444;SDS011;21562;49.476;6.086;2022-10-31T00:06:59;17.33;;;5.35;;
35444;SDS011;21562;49.476;6.086;2022-10-31T00:09:24;21.83;;;5.97;;
35444;SDS011;21562;49.476;6.086;2022-10-31T00:11:50;15.90;;;5.47;;
35444;SDS011;21562;49.476;6.086;2022-10-31T00:14:16;11.50;;;4.70;;
35444;SDS011;21562;49.476;6.086;2022-10-31T00:16:41;14.00;;;4.47;;
35444;SDS011;21562;49.476;6.086;2022-10-31T00:19:07;17.30;;;4.82;;
35444;SDS011;21562;49.476;6.086;2022-10-31T00:21:33;13.25;;;5.28;;
35444;SDS011;21562;49.476;6.086;2022-10-31T00:24:00;11.95;;;4.22;;
35444;SDS011;21562;49.476;6.086;2022-10-31T00:26:26;14.65;;;5.15;;
35444;SDS011;21562;49.476;6.086;2022-10-31T00:28:53;10.13;;;4.47;;
35444;SDS011;21562;49.476;6.086;2022-10-31T00:31:19;18.33;;;5.32;;
35444;SDS011;21562;49.476;6.086;2022-10-31T00:33:44;23.38;;;4.80;;
35444;SDS011;21562;49.476;6.086;2022-10-31T00:36:11;17.20;;;6.18;;
35444;SDS011;21562;49.476;6.086;2022-10-31T00:38:39;15.40;;;5.10;;
35444;SDS011;21562;49.476;6.086;2022-10-31T00:41:05;14.88;;;5.03;;
35444;SDS011;21562;49.476;6.086;2022-10-31T00:43:30;16.48;;;5.03;;
35444;SDS011;21562;49.476;6.086;2022-10-31T00:45:56;12.48;;;4.57;;
35444;SDS011;21562;49.476;6.086;2022-10-31T00:48:22;19.60;;;5.50;;
35444;SDS011;21562;49.476;6.086;2022-10-31T00:50:47;8.30;;;4.20;;
35444;SDS011;21562;49.476;6.086;2022-10-31T00:53:13;13.63;;;4.93;;
35444;SDS011;21562;49.476;6.086;2022-10-31T00:55:39;15.43;;;5.43;;
35444;SDS011;21562;49.476;6.086;2022-10-31T00:58:05;13.20;;;4.68;;
35444;SDS011;21562;49.476;6.086;2022-10-31T01:00:30;11.75;;;5.28;;
35444;SDS011;21562;49.476;6.086;2022-10-31T01:02:56;13.27;;;5.20;;
35444;SDS011;21562;49.476;6.086;2022-10-31T01:05:22;14.85;;;5.03;;
35444;SDS011;21562;49.476;6.086;2022-10-31T01:07:47;19.52;;;6.30;;
35444;SDS011;21562;49.476;6.086;2022-10-31T01:10:13;14.45;;;4.68;;
35444;SDS011;21562;49.476;6.086;2022-10-31T01:12:39;14.27;;;4.72;;
35444;SDS011;21562;49.476;6.086;2022-10-31T01:15:07;12.80;;;4.05;;
35444;SDS011;21562;49.476;6.086;2022-10-31T01:17:34;12.52;;;5.05;;
35444;SDS011;21562;49.476;6.086;2022-10-31T01:20:00;12.65;;;4.60;;
35444;SDS011;21562;49.476;6.086;2022-10-31T01:22:26;11.15;;;4.47;;
35444;SDS011;21562;49.476;6.086;2022-10-31T01:24:52;13.32;;;5.18;;
35444;SDS011;21562;49.476;6.086;2022-10-31T01:27:17;23.67;;;5.35;;
35444;SDS011;21562;49.476;6.086;2022-10-31T01:29:43;15.82;;;4.55;;
35444;SDS011;21562;49.476;6.086;2022-10-31T01:32:09;15.07;;;4.15;;
35444;SDS011;21562;49.476;6.086;2022-10-31T01:34:35;13.38;;;5.05;;
35444;SDS011;21562;49.476;6.086;2022-10-31T01:37:00;14.13;;;4.40;;
35444;SDS011;21562;49.476;6.086;2022-10-31T01:39:26;17.42;;;4.57;;
35444;SDS011;21562;49.476;6.086;2022-10-31T01:41:52;15.75;;;4.95;;
35444;SDS011;21562;49.476;6.086;2022-10-31T01:46:45;14.98;;;4.75;;
35444;SDS011;21562;49.476;6.086;2022-10-31T01:49:52;16.63;;;4.90;;
35444;SDS011;21562;49.476;6.086;2022-10-31T01:52:11;13.77;;;4.57;;
35444;SDS011;21562;49.476;6.086;2022-10-31T01:55:33;17.90;;;5.38;;
35444;SDS011;21562;49.476;6.086;2022-10-31T01:57:54;20.70;;;5.45;;
35444;SDS011;21562;49.476;6.086;2022-10-31T02:00:23;13.35;;;4.72;;
35444;SDS011;21562;49.476;6.086;2022-10-31T02:02:49;11.80;;;4.80;;
35444;SDS011;21562;49.476;6.086;2022-10-31T02:05:17;14.02;;;4.68;;
35444;SDS011;21562;49.476;6.086;2022-10-31T02:07:55;10.55;;;4.40;;
35444;SDS011;21562;49.476;6.086;2022-10-31T02:10:24;17.30;;;5.05;;
35444;SDS011;21562;49.476;6.086;2022-10-31T02:12:51;12.82;;;4.68;;
35444;SDS011;21562;49.476;6.086;2022-10-31T02:15:19;8.00;;;4.68;;
35444;SDS011;21562;49.476;6.086;2022-10-31T02:17:45;20.73;;;5.18;;
35444;SDS011;21562;49.476;6.086;2022-10-31T02:20:15;16.77;;;4.70;;
35444;SDS011;21562;49.476;6.086;2022-10-31T02:28:29;10.68;;;4.22;;
35444;SDS011;21562;49.476;6.086;2022-10-31T02:34:05;16.00;;;4.75;;
35444;SDS011;21562;49.476;6.086;2022-10-31T02:36:59;12.68;;;3.95;;
35444;SDS011;21562;49.476;6.086;2022-10-31T02:39:54;11.70;;;4.80;;
35444;SDS011;21562;49.476;6.086;2022-10-31T02:42:41;11.80;;;4.22;;
35444;SDS011;21562;49.476;6.086;2022-10-31T02:45:25;10.75;;;5.15;;
35444;SDS011;21562;49.476;6.086;2022-10-31T02:48:01;10.05;;;4.70;;
35444;SDS011;21562;49.476;6.086;2022-10-31T02:50:35;11.00;;;5.00;;
35444;SDS011;21562;49.476;6.086;2022-10-31T02:53:06;14.55;;;5.20;;
35444;SDS011;21562;49.476;6.086;2022-10-31T02:58:00;17.33;;;5.75;;
35444;SDS011;21562;49.476;6.086;2022-10-31T03:00:42;7.55;;;4.45;;
35444;SDS011;21562;49.476;6.086;2022-10-31T03:06:35;10.40;;;4.43;;
35444;SDS011;21562;49.476;6.086;2022-10-31T03:09:26;12.73;;;4.60;;
35444;SDS011;21562;49.476;6.086;2022-10-31T03:15:00;10.45;;;4.07;;
35444;SDS011;21562;49.476;6.086;2022-10-31T03:17:36;16.58;;;4.82;;
35444;SDS011;21562;49.476;6.086;2022-10-31T03:20:08;14.77;;;5.30;;
35444;SDS011;21562;49.476;6.086;2022-10-31T03:22:35;14.10;;;4.72;;
35444;SDS011;21562;49.476;6.086;2022-10-31T03:25:04;15.88;;;5.10;;
35444;SDS011;21562;49.476;6.086;2022-10-31T03:27:31;10.10;;;4.25;;
35444;SDS011;21562;49.476;6.086;2022-10-31T03:30:02;10.18;;;4.82;;
35444;SDS011;21562;49.476;6.086;2022-10-31T03:35:05;13.10;;;4.30;;
35444;SDS011;21562;49.476;6.086;2022-10-31T03:37:33;18.33;;;4.90;;
35444;SDS011;21562;49.476;6.086;2022-10-31T03:40:01;18.83;;;5.30;;
35444;SDS011;21562;49.476;6.086;2022-10-31T03:42:31;16.25;;;4.72;;
35444;SDS011;21562;49.476;6.086;2022-10-31T03:45:03;11.82;;;4.55;;
35444;SDS011;21562;49.476;6.086;2022-10-31T03:47:39;13.75;;;4.32;;
35444;SDS011;21562;49.476;6.086;2022-10-31T03:50:08;13.82;;;4.72;;
35444;SDS011;21562;49.476;6.086;2022-10-31T03:52:49;9.88;;;4.40;;
35444;SDS011;21562;49.476;6.086;2022-10-31T03:55:30;15.65;;;4.18;;
35444;SDS011;21562;49.476;6.086;2022-10-31T03:58:05;8.45;;;4.82;;
35444;SDS011;21562;49.476;6.086;2022-10-31T04:00:35;13.90;;;4.53;;
35444;SDS011;21562;49.476;6.086;2022-10-31T04:03:05;10.43;;;4.75;;
35444;SDS011;21562;49.476;6.086;2022-10-31T04:05:34;11.20;;;4.20;;
35444;SDS011;21562;49.476;6.086;2022-10-31T04:08:02;8.57;;;4.47;;
35444;SDS011;21562;49.476;6.086;2022-10-31T04:10:32;16.52;;;5.30;;
35444;SDS011;21562;49.476;6.086;2022-10-31T04:13:01;7.80;;;3.72;;
35444;SDS011;21562;49.476;6.086;2022-10-31T04:15:31;14.88;;;4.57;;
35444;SDS011;21562;49.476;6.086;2022-10-31T04:17:59;10.85;;;4.18;;
35444;SDS011;21562;49.476;6.086;2022-10-31T04:20:36;10.65;;;4.10;;
35444;SDS011;21562;49.476;6.086;2022-10-31T04:23:03;9.25;;;3.97;;
35444;SDS011;21562;49.476;6.086;2022-10-31T04:25:30;17.10;;;5.80;;
35444;SDS011;21562;49.476;6.086;2022-10-31T04:27:55;17.42;;;5.38;;
35444;SDS011;21562;49.476;6.086;2022-10-31T04:30:21;14.60;;;5.30;;
35444;SDS011;21562;49.476;6.086;2022-10-31T04:32:47;10.52;;;4.55;;
35444;SDS011;21562;49.476;6.086;2022-10-31T04:35:12;14.90;;;4.25;;
35444;SDS011;21562;49.476;6.086;2022-10-31T04:37:38;11.52;;;4.80;;
35444;SDS011;21562;49.476;6.086;2022-10-31T04:40:05;19.80;;;5.65;;
35444;SDS011;21562;49.476;6.086;2022-10-31T04:42:31;14.48;;;4.97;;
35444;SDS011;21562;49.476;6.086;2022-10-31T04:44:57;13.07;;;4.97;;
35444;SDS011;21562;49.476;6.086;2022-10-31T04:47:23;13.85;;;5.20;;
35444;SDS011;21562;49.476;6.086;2022-10-31T04:49:48;19.15;;;5.38;;
35444;SDS011;21562;49.476;6.086;2022-10-31T04:52:14;17.92;;;5.65;;
35444;SDS011;21562;49.476;6.086;2022-10-31T04:54:40;11.65;;;4.50;;
35444;SDS011;21562;49.476;6.086;2022-10-31T04:57:05;18.48;;;5.60;;
35444;SDS011;21562;49.476;6.086;2022-10-31T04:59:31;10.48;;;5.57;;
35444;SDS011;21562;49.476;6.086;2022-10-31T05:01:57;11.02;;;4.85;;
35444;SDS011;21562;49.476;6.086;2022-10-31T05:04:23;15.82;;;4.65;;
35444;SDS011;21562;49.476;6.086;2022-10-31T05:06:48;18.58;;;5.53;;
35444;SDS011;21562;49.476;6.086;2022-10-31T05:09:14;14.23;;;5.70;;
35444;SDS011;21562;49.476;6.086;2022-10-31T05:11:40;14.07;;;5.95;;
35444;SDS011;21562;49.476;6.086;2022-10-31T05:14:05;15.60;;;5.75;;
35444;SDS011;21562;49.476;6.086;2022-10-31T05:16:31;16.98;;;6.32;;
35444;SDS011;21562;49.476;6.086;2022-10-31T05:18:57;13.80;;;6.40;;
35444;SDS011;21562;49.476;6.086;2022-10-31T05:21:22;10.40;;;4.57;;
35444;SDS011;21562;49.476;6.086;2022-10-31T05:23:48;11.93;;;4.85;;
35444;SDS011;21562;49.476;6.086;2022-10-31T05:26:14;12.50;;;5.57;;
35444;SDS011;21562;49.476;6.086;2022-10-31T05:28:40;9.77;;;5.13;;
35444;SDS011;21562;49.476;6.086;2022-10-31T05:31:05;21.02;;;6.57;;
35444;SDS011;21562;49.476;6.086;2022-10-31T05:33:31;15.90;;;5.93;;
35444;SDS011;21562;49.476;6.086;2022-10-31T05:35:57;15.80;;;7.15;;
35444;SDS011;21562;49.476;6.086;2022-10-31T05:38:22;17.85;;;7.18;;
35444;SDS011;21562;49.476;6.086;2022-10-31T05:40:48;19.35;;;6.32;;
35444;SDS011;21562;49.476;6.086;2022-10-31T05:43:14;11.40;;;6.10;;
35444;SDS011;21562;49.476;6.086;2022-10-31T05:45:39;27.15;;;7.63;;
35444;SDS011;21562;49.476;6.086;2022-10-31T05:48:05;16.58;;;6.93;;
35444;SDS011;21562;49.476;6.086;2022-10-31T05:50:31;18.27;;;7.10;;
35444;SDS011;21562;49.476;6.086;2022-10-31T05:52:58;15.43;;;6.03;;
35444;SDS011;21562;49.476;6.086;2022-10-31T05:55:28;14.77;;;6.05;;
35444;SDS011;21562;49.476;6.086;2022-10-31T05:57:54;15.30;;;6.03;;
35444;SDS011;21562;49.476;6.086;2022-10-31T06:00:20;16.73;;;6.07;;
35444;SDS011;21562;49.476;6.086;2022-10-31T06:02:47;15.02;;;6.50;;
35444;SDS011;21562;49.476;6.086;2022-10-31T06:05:14;17.67;;;7.05;;
35444;SDS011;21562;49.476;6.086;2022-10-31T06:07:40;19.38;;;6.22;;
35444;SDS011;21562;49.476;6.086;2022-10-31T06:10:06;20.50;;;7.50;;
35444;SDS011;21562;49.476;6.086;2022-10-31T06:12:32;17.40;;;6.30;;
35444;SDS011;21562;49.476;6.086;2022-10-31T06:15:05;15.20;;;6.50;;
35444;SDS011;21562;49.476;6.086;2022-10-31T06:17:35;17.13;;;6.85;;
35444;SDS011;21562;49.476;6.086;2022-10-31T06:20:02;16.40;;;5.75;;
35444;SDS011;21562;49.476;6.086;2022-10-31T06:22:29;12.48;;;5.50;;
35444;SDS011;21562;49.476;6.086;2022-10-31T06:24:54;17.90;;;6.80;;
35444;SDS011;21562;49.476;6.086;2022-10-31T06:27:20;17.92;;;6.75;;
35444;SDS011;21562;49.476;6.086;2022-10-31T06:29:46;16.60;;;6.55;;
35444;SDS011;21562;49.476;6.086;2022-10-31T06:32:12;18.45;;;7.55;;
35444;SDS011;21562;49.476;6.086;2022-10-31T06:34:39;18.77;;;6.90;;
35444;SDS011;21562;49.476;6.086;2022-10-31T06:37:06;14.27;;;6.43;;
35444;SDS011;21562;49.476;6.086;2022-10-31T06:39:32;14.75;;;5.80;;
35444;SDS011;21562;49.476;6.086;2022-10-31T06:41:58;18.17;;;6.68;;
35444;SDS011;21562;49.476;6.086;2022-10-31T06:44:24;12.15;;;5.47;;
35444;SDS011;21562;49.476;6.086;2022-10-31T06:46:50;13.07;;;6.20;;
35444;SDS011;21562;49.476;6.086;2022-10-31T06:49:15;14.30;;;5.95;;
35444;SDS011;21562;49.476;6.086;2022-10-31T06:51:41;14.80;;;6.50;;
35444;SDS011;21562;49.476;6.086;2022-10-31T06:54:07;14.15;;;7.30;;
35444;SDS011;21562;49.476;6.086;2022-10-31T06:56:33;15.65;;;5.85;;
35444;SDS011;21562;49.476;6.086;2022-10-31T06:58:59;18.98;;;6.78;;
35444;SDS011;21562;49.476;6.086;2022-10-31T07:01:25;18.83;;;6.57;;
35444;SDS011;21562;49.476;6.086;2022-10-31T07:03:51;15.43;;;5.97;;
35444;SDS011;21562;49.476;6.086;2022-10-31T07:06:16;22.08;;;7.50;;
35444;SDS011;21562;49.476;6.086;2022-10-31T07:08:42;16.95;;;6.97;;
35444;SDS011;21562;49.476;6.086;2022-10-31T07:11:08;16.27;;;6.13;;
35444;SDS011;21562;49.476;6.086;2022-10-31T07:13:33;19.98;;;5.90;;
35444;SDS011;21562;49.476;6.086;2022-10-31T07:16:00;17.88;;;6.15;;
35444;SDS011;21562;49.476;6.086;2022-10-31T07:18:27;13.68;;;6.25;;
35444;SDS011;21562;49.476;6.086;2022-10-31T07:20:53;18.08;;;6.80;;
35444;SDS011;21562;49.476;6.086;2022-10-31T07:23:19;19.48;;;6.55;;
35444;SDS011;21562;49.476;6.086;2022-10-31T07:25:44;16.45;;;6.07;;
35444;SDS011;21562;49.476;6.086;2022-10-31T07:28:10;18.67;;;6.40;;
35444;SDS011;21562;49.476;6.086;2022-10-31T07:30:36;14.25;;;5.90;;
35444;SDS011;21562;49.476;6.086;2022-10-31T07:33:03;19.85;;;6.35;;
35444;SDS011;21562;49.476;6.086;2022-10-31T07:35:29;15.65;;;7.05;;
35444;SDS011;21562;49.476;6.086;2022-10-31T07:37:55;18.48;;;6.85;;
35444;SDS011;21562;49.476;6.086;2022-10-31T07:40:21;16.02;;;7.25;;
35444;SDS011;21562;49.476;6.086;2022-10-31T07:42:49;21.80;;;7.35;;
35444;SDS011;21562;49.476;6.086;2022-10-31T07:45:19;20.83;;;6.35;;
35444;SDS011;21562;49.476;6.086;2022-10-31T07:47:46;18.98;;;7.55;;
35444;SDS011;21562;49.476;6.086;2022-10-31T07:50:14;17.10;;;7.18;;
35444;SDS011;21562;49.476;6.086;2022-10-31T07:52:42;19.10;;;6.45;;
35444;SDS011;21562;49.476;6.086;2022-10-31T07:55:08;20.42;;;6.80;;
35444;SDS011;21562;49.476;6.086;2022-10-31T07:57:34;16.42;;;7.07;;
35444;SDS011;21562;49.476;6.086;2022-10-31T08:00:01;21.35;;;7.63;;
35444;SDS011;21562;49.476;6.086;2022-10-31T08:02:29;18.95;;;7.13;;
35444;SDS011;21562;49.476;6.086;2022-10-31T08:04:54;18.77;;;7.85;;
35444;SDS011;21562;49.476;6.086;2022-10-31T08:07:20;29.15;;;9.57;;
35444;SDS011;21562;49.476;6.086;2022-10-31T08:09:46;18.80;;;7.43;;
35444;SDS011;21562;49.476;6.086;2022-10-31T08:12:11;34.60;;;7.65;;
35444;SDS011;21562;49.476;6.086;2022-10-31T08:14:37;22.33;;;8.27;;
35444;SDS011;21562;49.476;6.086;2022-10-31T08:17:03;25.05;;;7.53;;
35444;SDS011;21562;49.476;6.086;2022-10-31T08:19:28;27.13;;;8.77;;
35444;SDS011;21562;49.476;6.086;2022-10-31T08:21:54;23.75;;;7.88;;
35444;SDS011;21562;49.476;6.086;2022-10-31T08:24:23;23.00;;;7.50;;
35444;SDS011;21562;49.476;6.086;2022-10-31T08:26:49;15.43;;;7.72;;
35444;SDS011;21562;49.476;6.086;2022-10-31T08:29:15;24.00;;;8.30;;
35444;SDS011;21562;49.476;6.086;2022-10-31T08:31:41;23.70;;;9.60;;
35444;SDS011;21562;49.476;6.086;2022-10-31T08:34:07;20.95;;;8.85;;
35444;SDS011;21562;49.476;6.086;2022-10-31T08:36:33;22.88;;;8.20;;
35444;SDS011;21562;49.476;6.086;2022-10-31T08:38:59;22.67;;;8.32;;
35444;SDS011;21562;49.476;6.086;2022-10-31T08:41:26;19.38;;;9.27;;
35444;SDS011;21562;49.476;6.086;2022-10-31T08:43:52;26.23;;;7.82;;
35444;SDS011;21562;49.476;6.086;2022-10-31T08:46:18;24.63;;;7.55;;
35444;SDS011;21562;49.476;6.086;2022-10-31T08:48:43;22.75;;;7.82;;
35444;SDS011;21562;49.476;6.086;2022-10-31T08:51:09;15.05;;;6.53;;
35444;SDS011;21562;49.476;6.086;2022-10-31T08:53:36;17.20;;;5.72;;
35444;SDS011;21562;49.476;6.086;2022-10-31T08:56:01;19.13;;;6.78;;
35444;SDS011;21562;49.476;6.086;2022-10-31T08:58:27;17.38;;;6.10;;
35444;SDS011;21562;49.476;6.086;2022-10-31T09:00:53;18.42;;;6.07;;
35444;SDS011;21562;49.476;6.086;2022-10-31T09:03:25;18.50;;;5.70;;
35444;SDS011;21562;49.476;6.086;2022-10-31T09:05:56;12.02;;;5.88;;
35444;SDS011;21562;49.476;6.086;2022-10-31T09:08:23;15.00;;;5.80;;
35444;SDS011;21562;49.476;6.086;2022-10-31T09:10:49;18.17;;;6.28;;
35444;SDS011;21562;49.476;6.086;2022-10-31T09:13:16;14.98;;;5.45;;
35444;SDS011;21562;49.476;6.086;2022-10-31T09:15:43;15.40;;;5.45;;
35444;SDS011;21562;49.476;6.086;2022-10-31T09:18:12;24.92;;;5.70;;
35444;SDS011;21562;49.476;6.086;2022-10-31T09:20:39;19.00;;;5.47;;
35444;SDS011;21562;49.476;6.086;2022-10-31T09:23:07;16.83;;;4.80;;
35444;SDS011;21562;49.476;6.086;2022-10-31T09:25:40;35.65;;;8.23;;
35444;SDS011;21562;49.476;6.086;2022-10-31T09:28:07;17.10;;;5.95;;
35444;SDS011;21562;49.476;6.086;2022-10-31T09:30:35;14.02;;;5.20;;
35444;SDS011;21562;49.476;6.086;2022-10-31T09:33:02;11.45;;;4.85;;
35444;SDS011;21562;49.476;6.086;2022-10-31T09:35:34;19.83;;;5.53;;
35444;SDS011;21562;49.476;6.086;2022-10-31T09:38:00;19.30;;;5.05;;
35444;SDS011;21562;49.476;6.086;2022-10-31T09:40:32;12.27;;;4.60;;
35444;SDS011;21562;49.476;6.086;2022-10-31T09:48:22;14.75;;;5.38;;
35444;SDS011;21562;49.476;6.086;2022-10-31T09:56:22;18.05;;;5.72;;
35444;SDS011;21562;49.476;6.086;2022-10-31T09:58:51;16.17;;;5.65;;
35444;SDS011;21562;49.476;6.086;2022-10-31T10:04:00;12.60;;;5.00;;
35444;SDS011;21562;49.476;6.086;2022-10-31T10:06:36;17.33;;;5.70;;
35444;SDS011;21562;49.476;6.086;2022-10-31T10:09:06;21.17;;;5.53;;
35444;SDS011;21562;49.476;6.086;2022-10-31T10:11:51;20.27;;;5.78;;
35444;SDS011;21562;49.476;6.086;2022-10-31T10:14:39;16.02;;;4.93;;
35444;SDS011;21562;49.476;6.086;2022-10-31T10:30:02;18.75;;;5.72;;
35444;SDS011;21562;49.476;6.086;2022-10-31T10:32:42;18.85;;;5.20;;
35444;SDS011;21562;49.476;6.086;2022-10-31T10:35:17;14.45;;;5.45;;
35444;SDS011;21562;49.476;6.086;2022-10-31T10:37:48;19.38;;;6.25;;
35444;SDS011;21562;49.476;6.086;2022-10-31T10:40:17;13.27;;;4.95;;
35444;SDS011;21562;49.476;6.086;2022-10-31T10:42:50;14.35;;;4.95;;
35444;SDS011;21562;49.476;6.086;2022-10-31T10:45:48;20.85;;;5.47;;
35444;SDS011;21562;49.476;6.086;2022-10-31T10:51:22;17.25;;;5.20;;
35444;SDS011;21562;49.476;6.086;2022-10-31T10:57:09;12.57;;;5.78;;
35444;SDS011;21562;49.476;6.086;2022-10-31T10:59:43;13.73;;;6.20;;
35444;SDS011;21562;49.476;6.086;2022-10-31T11:02:19;19.13;;;5.63;;
35444;SDS011;21562;49.476;6.086;2022-10-31T11:04:53;16.52;;;5.68;;
35444;SDS011;21562;49.476;6.086;2022-10-31T11:07:21;12.75;;;5.28;;
35444;SDS011;21562;49.476;6.086;2022-10-31T11:09:48;17.00;;;5.55;;
35444;SDS011;21562;49.476;6.086;2022-10-31T11:12:34;21.75;;;6.25;;
35444;SDS011;21562;49.476;6.086;2022-10-31T11:15:03;14.30;;;5.47;;
35444;SDS011;21562;49.476;6.086;2022-10-31T11:17:39;21.25;;;7.15;;
35444;SDS011;21562;49.476;6.086;2022-10-31T11:22:37;15.25;;;6.55;;
35444;SDS011;21562;49.476;6.086;2022-10-31T11:25:24;16.42;;;6.93;;
35444;SDS011;21562;49.476;6.086;2022-10-31T11:28:01;18.75;;;5.93;;
35444;SDS011;21562;49.476;6.086;2022-10-31T11:30:29;14.18;;;6.32;;
35444;SDS011;21562;49.476;6.086;2022-10-31T11:32:56;20.15;;;5.97;;
35444;SDS011;21562;49.476;6.086;2022-10-31T11:35:22;16.92;;;5.95;;
35444;SDS011;21562;49.476;6.086;2022-10-31T11:37:50;16.35;;;5.25;;
35444;SDS011;21562;49.476;6.086;2022-10-31T11:40:22;16.52;;;6.05;;
35444;SDS011;21562;49.476;6.086;2022-10-31T11:42:50;15.48;;;6.07;;
35444;SDS011;21562;49.476;6.086;2022-10-31T11:47:48;21.83;;;6.53;;
35444;SDS011;21562;49.476;6.086;2022-10-31T11:50:19;14.18;;;5.43;;
35444;SDS011;21562;49.476;6.086;2022-10-31T11:52:48;13.65;;;6.28;;
35444;SDS011;21562;49.476;6.086;2022-10-31T11:55:16;21.52;;;6.70;;
35444;SDS011;21562;49.476;6.086;2022-10-31T11:58:03;17.13;;;6.50;;
35444;SDS011;21562;49.476;6.086;2022-10-31T12:00:30;16.85;;;6.38;;
35444;SDS011;21562;49.476;6.086;2022-10-31T12:05:53;13.55;;;6.63;;
35444;SDS011;21562;49.476;6.086;2022-10-31T12:08:36;30.38;;;7.60;;
35444;SDS011;21562;49.476;6.086;2022-10-31T12:21:21;15.00;;;5.05;;
35444;SDS011;21562;49.476;6.086;2022-10-31T12:26:34;13.77;;;5.53;;
35444;SDS011;21562;49.476;6.086;2022-10-31T12:37:35;17.42;;;6.25;;
35444;SDS011;21562;49.476;6.086;2022-10-31T12:48:26;18.38;;;5.60;;
35444;SDS011;21562;49.476;6.086;2022-10-31T12:59:33;14.48;;;4.75;;
35444;SDS011;21562;49.476;6.086;2022-10-31T13:02:19;16.05;;;5.47;;
35444;SDS011;21562;49.476;6.086;2022-10-31T13:04:54;16.00;;;5.35;;
35444;SDS011;21562;49.476;6.086;2022-10-31T13:10:16;27.40;;;5.22;;
35444;SDS011;21562;49.476;6.086;2022-10-31T13:12:53;14.32;;;6.20;;
35444;SDS011;21562;49.476;6.086;2022-10-31T13:15:24;17.83;;;4.70;;
35444;SDS011;21562;49.476;6.086;2022-10-31T13:17:58;14.43;;;4.68;;
35444;SDS011;21562;49.476;6.086;2022-10-31T13:20:28;16.58;;;5.00;;
35444;SDS011;21562;49.476;6.086;2022-10-31T13:23:10;15.05;;;5.20;;
35444;SDS011;21562;49.476;6.086;2022-10-31T13:25:40;11.68;;;4.97;;
35444;SDS011;21562;49.476;6.086;2022-10-31T13:28:26;15.13;;;4.80;;
35444;SDS011;21562;49.476;6.086;2022-10-31T13:30:54;11.02;;;4.57;;
35444;SDS011;21562;49.476;6.086;2022-10-31T13:33:27;17.35;;;4.60;;
35444;SDS011;21562;49.476;6.086;2022-10-31T13:46:54;10.75;;;4.10;;
35444;SDS011;21562;49.476;6.086;2022-10-31T13:52:12;12.35;;;4.60;;
35444;SDS011;21562;49.476;6.086;2022-10-31T13:54:41;19.80;;;5.18;;
35444;SDS011;21562;49.476;6.086;2022-10-31T13:57:31;17.85;;;4.22;;
35444;SDS011;21562;49.476;6.086;2022-10-31T14:00:13;20.58;;;5.05;;
35444;SDS011;21562;49.476;6.086;2022-10-31T14:02:50;15.73;;;4.22;;
35444;SDS011;21562;49.476;6.086;2022-10-31T14:05:24;16.33;;;4.35;;
35444;SDS011;21562;49.476;6.086;2022-10-31T14:07:53;19.77;;;5.32;;
35444;SDS011;21562;49.476;6.086;2022-10-31T14:13:02;13.27;;;3.72;;
35444;SDS011;21562;49.476;6.086;2022-10-31T14:15:30;15.45;;;4.03;;
35444;SDS011;21562;49.476;6.086;2022-10-31T14:18:04;11.90;;;4.15;;
35444;SDS011;21562;49.476;6.086;2022-10-31T14:25:53;13.75;;;4.38;;
35444;SDS011;21562;49.476;6.086;2022-10-31T14:28:32;13.77;;;4.13;;
35444;SDS011;21562;49.476;6.086;2022-10-31T14:31:01;16.45;;;3.80;;
35444;SDS011;21562;49.476;6.086;2022-10-31T14:33:28;18.77;;;4.65;;
35444;SDS011;21562;49.476;6.086;2022-10-31T14:38:50;16.02;;;4.65;;
35444;SDS011;21562;49.476;6.086;2022-10-31T14:41:51;14.25;;;3.92;;
35444;SDS011;21562;49.476;6.086;2022-10-31T14:52:52;14.80;;;4.13;;
35444;SDS011;21562;49.476;6.086;2022-10-31T14:55:21;11.77;;;3.78;;
35444;SDS011;21562;49.476;6.086;2022-10-31T14:57:49;9.98;;;3.83;;
35444;SDS011;21562;49.476;6.086;2022-10-31T15:00:20;9.30;;;3.85;;
35444;SDS011;21562;49.476;6.086;2022-10-31T15:05:41;8.95;;;4.38;;
35444;SDS011;21562;49.476;6.086;2022-10-31T15:08:40;11.55;;;4.25;;
35444;SDS011;21562;49.476;6.086;2022-10-31T15:11:14;13.13;;;4.22;;
35444;SDS011;21562;49.476;6.086;2022-10-31T15:13:58;19.52;;;4.97;;
35444;SDS011;21562;49.476;6.086;2022-10-31T15:16:37;21.80;;;5.10;;
35444;SDS011;21562;49.476;6.086;2022-10-31T15:19:07;12.98;;;3.90;;
35444;SDS011;21562;49.476;6.086;2022-10-31T15:21:40;12.05;;;4.35;;
35444;SDS011;21562;49.476;6.086;2022-10-31T15:24:10;14.10;;;4.72;;
35444;SDS011;21562;49.476;6.086;2022-10-31T15:26:43;19.52;;;4.82;;
35444;SDS011;21562;49.476;6.086;2022-10-31T15:29:14;15.93;;;5.13;;
35444;SDS011;21562;49.476;6.086;2022-10-31T15:31:55;14.98;;;4.93;;
35444;SDS011;21562;49.476;6.086;2022-10-31T15:34:30;19.38;;;5.55;;
35444;SDS011;21562;49.476;6.086;2022-10-31T15:37:24;13.73;;;4.65;;
35444;SDS011;21562;49.476;6.086;2022-10-31T15:39:51;16.77;;;4.32;;
35444;SDS011;21562;49.476;6.086;2022-10-31T15:42:19;12.57;;;5.30;;
35444;SDS011;21562;49.476;6.086;2022-10-31T15:45:04;10.18;;;4.43;;
35444;SDS011;21562;49.476;6.086;2022-10-31T15:47:45;17.42;;;4.85;;
35444;SDS011;21562;49.476;6.086;2022-10-31T15:52:57;13.32;;;4.82;;
35444;SDS011;21562;49.476;6.086;2022-10-31T15:55:25;12.90;;;4.47;;
35444;SDS011;21562;49.476;6.086;2022-10-31T15:58:01;16.58;;;6.18;;
35444;SDS011;21562;49.476;6.086;2022-10-31T16:00:35;10.63;;;3.85;;
35444;SDS011;21562;49.476;6.086;2022-10-31T16:05:45;10.40;;;3.88;;
35444;SDS011;21562;49.476;6.086;2022-10-31T16:10:55;15.52;;;5.10;;
35444;SDS011;21562;49.476;6.086;2022-10-31T16:16:24;12.40;;;3.35;;
35444;SDS011;21562;49.476;6.086;2022-10-31T16:18:50;14.68;;;3.65;;
35444;SDS011;21562;49.476;6.086;2022-10-31T16:21:25;12.75;;;4.13;;
35444;SDS011;21562;49.476;6.086;2022-10-31T16:23:57;7.80;;;3.40;;
35444;SDS011;21562;49.476;6.086;2022-10-31T16:26:25;12.25;;;3.60;;
35444;SDS011;21562;49.476;6.086;2022-10-31T16:28:54;17.50;;;4.15;;
35444;SDS011;21562;49.476;6.086;2022-10-31T16:31:29;8.10;;;3.63;;
35444;SDS011;21562;49.476;6.086;2022-10-31T16:34:03;10.13;;;3.75;;
35444;SDS011;21562;49.476;6.086;2022-10-31T16:36:33;16.50;;;3.63;;
35444;SDS011;21562;49.476;6.086;2022-10-31T16:39:04;8.25;;;3.67;;
35444;SDS011;21562;49.476;6.086;2022-10-31T16:41:31;10.45;;;3.92;;
35444;SDS011;21562;49.476;6.086;2022-10-31T16:44:01;14.15;;;4.07;;
35444;SDS011;21562;49.476;6.086;2022-10-31T16:46:29;11.68;;;4.22;;
35444;SDS011;21562;49.476;6.086;2022-10-31T16:48:55;11.57;;;4.25;;
35444;SDS011;21562;49.476;6.086;2022-10-31T16:51:20;12.07;;;3.53;;
35444;SDS011;21562;49.476;6.086;2022-10-31T16:53:46;16.63;;;4.53;;
35444;SDS011;21562;49.476;6.086;2022-10-31T16:56:20;18.05;;;4.82;;
35444;SDS011;21562;49.476;6.086;2022-10-31T16:58:52;10.93;;;4.32;;
35444;SDS011;21562;49.476;6.086;2022-10-31T17:01:18;15.40;;;4.03;;
35444;SDS011;21562;49.476;6.086;2022-10-31T17:03:44;21.13;;;4.45;;
35444;SDS011;21562;49.476;6.086;2022-10-31T17:06:13;14.25;;;4.60;;
35444;SDS011;21562;49.476;6.086;2022-10-31T17:08:39;12.98;;;4.32;;
35444;SDS011;21562;49.476;6.086;2022-10-31T17:11:05;12.13;;;4.82;;
35444;SDS011;21562;49.476;6.086;2022-10-31T17:13:33;14.00;;;3.95;;
35444;SDS011;21562;49.476;6.086;2022-10-31T17:15:59;14.30;;;3.97;;
35444;SDS011;21562;49.476;6.086;2022-10-31T17:18:27;14.38;;;4.38;;
35444;SDS011;21562;49.476;6.086;2022-10-31T17:20:57;11.95;;;4.60;;
35444;SDS011;21562;49.476;6.086;2022-10-31T17:23:25;11.43;;;4.25;;